Clarion, IA (50525)

9:30 AM CST on January 21, 2017 (GMT -0600)
Clarion | | Change Station
Active Advisory: Dense Fog Advisory

Elev 1161 ft 42.74 °N, 93.76 °W | Updated 15 minutes ago

Fog
Fog
36 °F
Feels Like 31 °F
N
6
Wind Variable Wind from South

Today
High -- | Low -- °F
--% Chance of Precip.
Yesterday
High -- | Low -- °F
Precip. -- in
Pressure 29.38 in
Visibility 0.2 miles
Clouds Overcast 200 ft
Windchill 31 °F
Dew Point 36 °F
Humidity 100%
Rainfall 0.04 in
Snow Depth Not available.
7:38 AM 5:14 PM
Waning Crescent, 34% visible
METAR KCAV 211515Z AUTO 18005KT M1/4SM FG OVC002 02/02 A2938 RMK AO2 PWINO
Pressure 29.38 in
Visibility 0.2 miles
Clouds Overcast 200 ft
Windchill 31 °F
Dew Point 36 °F
Humidity 100%
Rainfall 0.04 in
Snow Depth Not available.
7:38 AM 5:14 PM
Waning Crescent, 34% visible
METAR KCAV 211515Z AUTO 18005KT M1/4SM FG OVC002 02/02 A2938 RMK AO2 PWINO

Get Your Daily Forecast Email!

Thanks for signing up!

Be on the lookout for a verification email in your inbox.

You'll start receiving the daily forecast at 8 AM.

×

10-Day Weather Forecast

Almanac

Astronomy

Jan. 21, 2017 Rise Set
Actual Time
Civil Twilight
Nautical Twilight
Astronomical Twilight
Moon
Length of Visible Light
Length of Day
Tomorrow will be .
, % of the Moon is Illuminated

Today's Extremes

State Highs State Lows

Community

WunderPhotos

Upload Photos

1,962,540 photos uploaded!

WunderBlog® & News

Nearby

Air Quality

  Air Quality AQ Index Pollutant
Not available.

Snow Depth

Station Depth Elevation

Earthquake Activity

City Distance Mag. Time & Date
Minimum magnitude displayed is 2.5.

Coastal Water Temperatures

Place Temperature

Stations

Nearby Weather Stations

Station Location Temp. Windchill Dew Point Humidity Wind Precip. Elev Updated Type
                   

Watches & Warnings

Dense Fog Advisory
Issued: 3:48 AM CST Jan. 21, 2017 – National Weather Service

... Dense fog advisory remains in effect until 10 am CST this
morning...

* visibility... visibility will remain below a quarter mile with
visibility near zero at times. Brief improvement may occur in
showers.

* Impacts... driving will be hazardous due to low and changing
visibilities. Allow extra travel time and please take
appropriate precautions while driving.

Precautionary/preparedness actions...

A dense fog advisory means visibilities will frequently be
reduced to less than one quarter mile. Be especially cautious
near intersections and Railroad crossings as vehicles and trains
may be hidden from view by the dense fog. Slow down, use your low
beam and fog headlights, and leave plenty of distance ahead of
you.


Kotenberg